createdAt,value
2017-09-17T00:00:21.548Z,96576.36
2017-09-17T00:02:49.067Z,96570.88
2017-09-17T00:05:16.543Z,96572.64
2017-09-17T00:07:43.968Z,96575.80
2017-09-17T00:10:11.374Z,96573.33
2017-09-17T00:12:38.821Z,96577.44
2017-09-17T00:15:06.243Z,96572.48
2017-09-17T00:17:33.664Z,96576.45
2017-09-17T00:20:01.146Z,96572.64
2017-09-17T00:22:28.552Z,96572.77
2017-09-17T00:24:55.979Z,96571.27
2017-09-17T00:27:23.450Z,96564.56
2017-09-17T00:29:50.883Z,96563.19
2017-09-17T00:32:18.301Z,96560.32
2017-09-17T00:34:45.722Z,96561.30
2017-09-17T00:37:13.223Z,96557.19
2017-09-17T00:39:40.643Z,96554.84
2017-09-17T00:42:08.077Z,96549.50
2017-09-17T00:44:35.507Z,96552.37
2017-09-17T00:47:02.917Z,96559.22
2017-09-17T00:49:30.364Z,96556.34
2017-09-17T00:51:57.780Z,96556.77
2017-09-17T00:54:25.196Z,96554.27
2017-09-17T00:56:52.644Z,96555.11
2017-09-17T00:59:20.054Z,96550.44
2017-09-17T01:01:47.463Z,96550.05
2017-09-17T01:04:14.938Z,96551.71
2017-09-17T01:06:42.352Z,96549.92
2017-09-17T01:09:09.768Z,96551.81
2017-09-17T01:11:37.205Z,96546.05
2017-09-17T01:14:04.629Z,96555.92
2017-09-17T01:16:32.043Z,96551.81
2017-09-17T01:18:59.489Z,96554.97
2017-09-17T01:21:26.899Z,96548.13
2017-09-17T01:23:54.302Z,96554.16
2017-09-17T01:26:21.741Z,96554.27
2017-09-17T01:28:49.150Z,96558.27
2017-09-17T01:31:16.595Z,96554.16
2017-09-17T01:33:44.095Z,96564.27
2017-09-17T01:36:11.499Z,96566.88
2017-09-17T01:38:38.912Z,96568.24
2017-09-17T01:41:06.352Z,96565.64
2017-09-17T01:43:33.764Z,96567.85
2017-09-17T01:46:01.206Z,96561.23
2017-09-17T01:48:28.703Z,96568.51
2017-09-17T01:50:56.121Z,96567.95
2017-09-17T01:53:23.559Z,96570.17
2017-09-17T01:55:50.990Z,96566.35
2017-09-17T01:58:18.415Z,96573.33
2017-09-17T02:00:45.808Z,96575.36
2017-09-17T02:03:13.333Z,96578.48
2017-09-17T02:05:40.741Z,96574.38
2017-09-17T02:08:08.155Z,96576.01
2017-09-17T02:10:35.579Z,96569.33
2017-09-17T02:13:02.993Z,96569.33
2017-09-17T02:15:30.406Z,96571.41
2017-09-17T02:17:57.873Z,96567.95
2017-09-17T02:20:25.288Z,96562.70
2017-09-17T02:22:52.698Z,96559.58
2017-09-17T02:25:20.166Z,96557.23
2017-09-17T02:27:47.579Z,96556.28
2017-09-17T02:30:15.007Z,96553.45
2017-09-17T02:32:42.424Z,96559.31
2017-09-17T02:35:09.866Z,96564.69
2017-09-17T02:37:37.288Z,96566.58
2017-09-17T02:40:04.725Z,96563.32
2017-09-17T02:42:32.137Z,96564.27
2017-09-17T02:44:59.552Z,96560.58
2017-09-17T02:47:27.004Z,96569.33
2017-09-17T02:49:54.458Z,96560.81
2017-09-17T02:52:21.874Z,96564.63
2017-09-17T02:54:49.421Z,96565.58
2017-09-17T02:57:16.833Z,96560.95
2017-09-17T02:59:44.240Z,96552.17
2017-09-17T03:02:11.724Z,96552.31
2017-09-17T03:04:39.121Z,96549.57
2017-09-17T03:07:06.539Z,96545.47
2017-09-17T03:09:33.996Z,96550.28
2017-09-17T03:12:01.399Z,96545.89
2017-09-17T03:14:28.815Z,96548.06
2017-09-17T03:16:56.239Z,96542.49
2017-09-17T03:19:23.654Z,96551.46
2017-09-17T03:21:51.890Z,96548.63
2017-09-17T03:24:19.335Z,96550.09
2017-09-17T03:26:46.744Z,96548.49
2017-09-17T03:29:14.156Z,96562.61
2017-09-17T03:31:41.576Z,96557.84
2017-09-17T03:34:08.978Z,96562.42
2017-09-17T03:36:36.438Z,96562.31
2017-09-17T03:39:03.982Z,96557.55
2017-09-17T03:41:31.400Z,96556.70
2017-09-17T03:43:58.824Z,96561.47
2017-09-17T03:46:26.275Z,96553.12
2017-09-17T03:48:53.703Z,96557.00
2017-09-17T03:51:21.117Z,96559.73
2017-09-17T03:53:48.650Z,96553.97
2017-09-17T03:56:16.083Z,96552.59
2017-09-17T03:58:43.559Z,96556.70
2017-09-17T04:01:11.011Z,96551.66
2017-09-17T04:03:38.444Z,96551.46
2017-09-17T04:06:05.861Z,96548.78
2017-09-17T04:08:33.300Z,96547.41
2017-09-17T04:11:00.707Z,96548.49
2017-09-17T04:13:28.196Z,96542.73
2017-09-17T04:15:55.793Z,96540.94
2017-09-17T04:18:23.300Z,96544.52
2017-09-17T04:20:50.703Z,96547.97
2017-09-17T04:23:18.162Z,96551.66
2017-09-17T04:25:45.585Z,96551.66
2017-09-17T04:28:13.078Z,96558.20
2017-09-17T04:30:40.513Z,96551.46
2017-09-17T04:33:07.983Z,96557.89
2017-09-17T04:35:35.401Z,96558.50
2017-09-17T04:38:02.851Z,96560.58
2017-09-17T04:40:30.261Z,96563.03
2017-09-17T04:42:57.696Z,96567.14
2017-09-17T04:45:25.139Z,96574.27
2017-09-17T04:47:52.596Z,96576.06
2017-09-17T04:50:20.004Z,96574.80
2017-09-17T04:52:47.452Z,96577.95
2017-09-17T04:55:14.862Z,96581.35
2017-09-17T04:57:42.292Z,96581.22
2017-09-17T05:00:09.759Z,96578.19
2017-09-17T05:02:37.177Z,96578.91
2017-09-17T05:05:04.599Z,96590.09
2017-09-17T05:07:32.047Z,96590.70
2017-09-17T05:09:59.465Z,96593.55
2017-09-17T05:12:26.919Z,96601.47
2017-09-17T05:14:54.335Z,96599.38
2017-09-17T05:17:21.754Z,96607.89
2017-09-17T05:19:49.161Z,96602.31
2017-09-17T05:22:16.590Z,96597.07
2017-09-17T05:24:44.092Z,96606.29
2017-09-17T05:27:11.496Z,96603.61
2017-09-17T05:29:39.064Z,96607.59
2017-09-17T05:32:06.465Z,96612.67
2017-09-17T05:34:33.876Z,96611.83
2017-09-17T05:37:01.419Z,96618.61
2017-09-17T05:39:28.847Z,96616.29
2017-09-17T05:41:56.261Z,96615.34
2017-09-17T05:44:23.700Z,96627.09
2017-09-17T05:46:51.106Z,96626.43
2017-09-17T05:49:18.577Z,96627.25
2017-09-17T05:51:46.008Z,96629.03
2017-09-17T05:54:13.434Z,96629.92
2017-09-17T05:56:40.869Z,96629.20
2017-09-17T05:59:08.311Z,96629.50
2017-09-17T06:01:35.715Z,96635.30
2017-09-17T06:04:03.472Z,96639.93
2017-09-17T06:06:30.895Z,96632.43
2017-09-17T06:08:58.309Z,96634.38
2017-09-17T06:11:25.702Z,96642.31
2017-09-17T06:13:53.149Z,96639.34
2017-09-17T06:16:20.690Z,96639.44
2017-09-17T06:18:48.114Z,96637.78
2017-09-17T06:21:15.624Z,96636.96
2017-09-17T06:23:43.050Z,96640.28
2017-09-17T06:26:10.459Z,96643.61
2017-09-17T06:28:37.937Z,96641.42
2017-09-17T06:31:05.419Z,96641.13
2017-09-17T06:33:32.826Z,96640.48
2017-09-17T06:36:00.288Z,96642.86
2017-09-17T06:38:27.702Z,96639.98
2017-09-17T06:40:55.174Z,96645.46
2017-09-17T06:43:22.632Z,96647.97
2017-09-17T06:45:50.123Z,96655.69
2017-09-17T06:48:17.669Z,96659.05
2017-09-17T06:50:45.107Z,96659.86
2017-09-17T06:53:12.522Z,96664.63
2017-09-17T06:55:39.943Z,96657.72
2017-09-17T06:58:07.555Z,96664.27
2017-09-17T07:00:34.983Z,96671.97
2017-09-17T07:03:02.432Z,96669.33
2017-09-17T07:05:29.867Z,96661.89
2017-09-17T07:07:57.340Z,96669.03
2017-09-17T07:10:24.740Z,96667.02
2017-09-17T07:12:52.188Z,96669.16
2017-09-17T07:15:19.607Z,96672.06
2017-09-17T07:17:47.022Z,96672.69
2017-09-17T07:20:14.470Z,96669.69
2017-09-17T07:22:41.900Z,96672.84
2017-09-17T07:25:09.323Z,96673.40
2017-09-17T07:27:36.760Z,96675.48
2017-09-17T07:30:04.185Z,96668.58
2017-09-17T07:32:31.587Z,96672.98
2017-09-17T07:34:59.034Z,96675.72
2017-09-17T07:37:26.460Z,96679.53
2017-09-17T07:39:53.921Z,96679.11
2017-09-17T07:42:21.370Z,96679.63
2017-09-17T07:44:48.771Z,96680.58
2017-09-17T07:47:16.187Z,96683.28
2017-09-17T07:49:43.629Z,96681.48
2017-09-17T07:52:11.051Z,96684.52
2017-09-17T07:54:38.539Z,96678.75
2017-09-17T07:57:05.965Z,96682.01
2017-09-17T07:59:33.384Z,96682.86
2017-09-17T08:02:00.807Z,96687.26
2017-09-17T08:04:28.376Z,96686.31
2017-09-17T08:06:56.044Z,96686.12
2017-09-17T08:09:23.540Z,96689.94
2017-09-17T08:11:50.958Z,96686.05
2017-09-17T08:14:18.374Z,96682.66
2017-09-17T08:16:45.922Z,96682.73
2017-09-17T08:19:13.354Z,96682.01
2017-09-17T08:21:40.763Z,96678.33
2017-09-17T08:24:08.191Z,96677.73
2017-09-17T08:26:35.653Z,96674.12
2017-09-17T08:29:03.061Z,96679.47
2017-09-17T08:31:30.517Z,96679.33
2017-09-17T08:33:57.963Z,96675.41
2017-09-17T08:36:25.385Z,96677.86
2017-09-17T08:38:52.793Z,96680.77
2017-09-17T08:41:20.259Z,96678.16
2017-09-17T08:43:47.674Z,96678.52
2017-09-17T08:46:15.143Z,96678.67
2017-09-17T08:48:42.579Z,96686.47
2017-09-17T08:51:10.005Z,96680.70
2017-09-17T08:53:37.422Z,96681.55
2017-09-17T08:56:05.382Z,96684.58
2017-09-17T08:58:32.856Z,96680.66
2017-09-17T09:01:00.279Z,96680.95
2017-09-17T09:03:27.703Z,96680.95
2017-09-17T09:05:55.115Z,96678.87
2017-09-17T09:08:22.536Z,96680.77
2017-09-17T09:10:49.996Z,96681.71
2017-09-17T09:13:17.411Z,96687.80
2017-09-17T09:15:44.848Z,96681.05
2017-09-17T09:18:12.282Z,96679.98
2017-09-17T09:20:39.714Z,96677.56
2017-09-17T09:23:07.180Z,96669.87
2017-09-17T09:25:34.668Z,96668.50
2017-09-17T09:28:02.089Z,96660.41
2017-09-17T09:30:29.603Z,96660.70
2017-09-17T09:32:57.033Z,96662.72
2017-09-17T09:35:24.473Z,96661.48
2017-09-17T09:37:51.898Z,96660.64
2017-09-17T09:40:19.339Z,96656.11
2017-09-17T09:42:46.752Z,96654.80
2017-09-17T09:45:14.187Z,96651.64
2017-09-17T09:47:41.643Z,96646.81
2017-09-17T09:50:09.101Z,96647.10
2017-09-17T09:52:36.553Z,96641.16
2017-09-17T09:55:04.000Z,96628.28
2017-09-17T09:57:31.426Z,96628.54
2017-09-17T09:59:58.837Z,96628.23
2017-09-17T10:02:26.296Z,96617.70
2017-09-17T10:04:53.825Z,96614.24
2017-09-17T10:07:21.299Z,96615.10
2017-09-17T10:09:48.741Z,96618.19
2017-09-17T10:12:16.192Z,96614.14
2017-09-17T10:14:43.606Z,96625.10
2017-09-17T10:17:11.096Z,96623.25
2017-09-17T10:19:38.541Z,96621.88
2017-09-17T10:22:06.028Z,96618.55
2017-09-17T10:24:33.468Z,96616.82
2017-09-17T10:27:00.878Z,96613.08
2017-09-17T10:29:28.319Z,96612.59
2017-09-17T10:31:56.025Z,96608.84
2017-09-17T10:34:23.474Z,96609.19
2017-09-17T10:36:50.901Z,96608.77
2017-09-17T10:39:18.370Z,96606.52
2017-09-17T10:41:45.808Z,96602.13
2017-09-17T10:44:13.226Z,96604.78
2017-09-17T10:46:40.690Z,96598.48
2017-09-17T10:49:08.117Z,96600.88
2017-09-17T10:51:35.526Z,96599.89
2017-09-17T10:54:02.987Z,96609.11
2017-09-17T10:56:30.407Z,96606.24
2017-09-17T10:58:57.842Z,96601.34
2017-09-17T11:01:25.291Z,96602.67
2017-09-17T11:03:52.724Z,96599.73
2017-09-17T11:06:20.133Z,96596.16
2017-09-17T11:08:48.451Z,96599.58
2017-09-17T11:11:15.884Z,96593.91
2017-09-17T11:13:43.342Z,96590.09
2017-09-17T11:16:10.813Z,96576.10
2017-09-17T11:18:39.127Z,96582.95
2017-09-17T11:21:06.536Z,96575.44
2017-09-17T11:23:33.994Z,96573.94
2017-09-17T11:26:01.441Z,96568.59
2017-09-17T11:28:28.849Z,96575.44
2017-09-17T11:30:56.294Z,96569.02
2017-09-17T11:33:23.717Z,96564.48
2017-09-17T11:35:51.178Z,96555.42
2017-09-17T11:38:18.615Z,96554.47
2017-09-17T11:40:46.042Z,96551.08
2017-09-17T11:43:14.442Z,96548.63
2017-09-17T11:45:41.900Z,96543.20
2017-09-17T11:48:09.337Z,96540.30
2017-09-17T11:50:36.788Z,96544.94
2017-09-17T11:53:04.293Z,96534.40
2017-09-17T11:55:31.816Z,96532.66
2017-09-17T11:57:59.230Z,96529.78
2017-09-17T12:00:27.621Z,96527.60
2017-09-17T12:02:55.029Z,96527.95
2017-09-17T12:05:22.444Z,96531.45
2017-09-17T12:07:49.931Z,96528.37
2017-09-17T12:10:17.350Z,96523.94
2017-09-17T12:12:44.796Z,96522.33
2017-09-17T12:15:12.253Z,96519.06
2017-09-17T12:17:39.670Z,96515.66
2017-09-17T12:20:07.171Z,96516.48
2017-09-17T12:22:34.593Z,96515.82
2017-09-17T12:25:02.036Z,96514.03
2017-09-17T12:27:29.489Z,96517.33
2017-09-17T12:29:56.931Z,96515.53
2017-09-17T12:32:24.349Z,96510.89
2017-09-17T12:34:51.996Z,96506.47
2017-09-17T12:37:19.429Z,96510.42
2017-09-17T12:39:46.842Z,96520.14
2017-09-17T12:42:14.955Z,96509.86
2017-09-17T12:44:42.410Z,96512.97
2017-09-17T12:47:09.822Z,96516.27
2017-09-17T12:49:37.945Z,96514.05
2017-09-17T12:52:05.404Z,96506.78
2017-09-17T12:54:32.806Z,96508.47
2017-09-17T12:57:00.218Z,96503.05
2017-09-17T12:59:27.674Z,96506.49
2017-09-17T13:01:55.078Z,96501.72
2017-09-17T13:04:22.489Z,96501.63
2017-09-17T13:06:49.924Z,96507.10
2017-09-17T13:09:17.378Z,96502.57
2017-09-17T13:11:44.870Z,96505.17
2017-09-17T13:14:12.289Z,96503.94
2017-09-17T13:16:39.762Z,96517.51
2017-09-17T13:19:07.165Z,96522.12
2017-09-17T13:21:34.619Z,96515.09
2017-09-17T13:24:02.036Z,96518.11
2017-09-17T13:26:29.468Z,96528.31
2017-09-17T13:28:56.908Z,96526.76
2017-09-17T13:31:24.311Z,96530.58
2017-09-17T13:33:52.457Z,96534.19
2017-09-17T13:36:19.907Z,96534.80
2017-09-17T13:38:47.326Z,96538.06
2017-09-17T13:41:14.851Z,96541.75
2017-09-17T13:43:42.310Z,96544.25
2017-09-17T13:46:09.725Z,96549.31
2017-09-17T13:48:37.375Z,96553.61
2017-09-17T13:51:04.828Z,96560.22
2017-09-17T13:53:32.353Z,96562.95
2017-09-17T13:55:59.774Z,96574.48
2017-09-17T13:58:27.256Z,96581.69
2017-09-17T14:00:56.121Z,96588.64
2017-09-17T14:03:24.471Z,96592.71
2017-09-17T14:09:03.420Z,96605.05
2017-09-17T14:11:30.902Z,96589.97
2017-09-17T14:13:58.336Z,96586.16
2017-09-17T14:16:25.937Z,96583.83
2017-09-17T14:18:53.369Z,96574.40
2017-09-17T14:21:20.790Z,96571.23
2017-09-17T14:23:48.208Z,96578.37
2017-09-17T14:26:15.640Z,96575.05
2017-09-17T14:28:43.057Z,96575.11
2017-09-17T14:31:10.487Z,96569.86
2017-09-17T14:33:37.952Z,96566.17
2017-09-17T14:36:05.640Z,96562.30
2017-09-17T14:38:33.124Z,96559.27
2017-09-17T14:41:00.571Z,96553.08
2017-09-17T14:43:27.983Z,96551.84
2017-09-17T14:45:55.430Z,96551.42
2017-09-17T14:48:22.868Z,96554.58
2017-09-17T14:50:50.292Z,96550.18
2017-09-17T14:53:17.790Z,96545.41
2017-09-17T14:55:45.255Z,96539.38
2017-09-17T14:58:12.671Z,96533.89
2017-09-17T15:00:40.095Z,96534.19
2017-09-17T15:03:07.523Z,96538.14
2017-09-17T15:05:35.090Z,96533.39
2017-09-17T15:08:02.504Z,96529.20
2017-09-17T15:10:29.963Z,96521.52
2017-09-17T15:12:57.383Z,96518.62
2017-09-17T15:15:24.792Z,96510.48
2017-09-17T15:17:52.623Z,96514.98
2017-09-17T15:20:20.049Z,96512.29
2017-09-17T15:22:47.454Z,96514.84
2017-09-17T15:25:14.891Z,96510.73
2017-09-17T15:27:42.533Z,96511.55
2017-09-17T15:30:09.964Z,96507.95
2017-09-17T15:32:37.417Z,96509.18
2017-09-17T15:35:04.820Z,96511.27
2017-09-17T15:37:32.235Z,96520.33
2017-09-17T15:39:59.712Z,96515.14
2017-09-17T15:42:27.146Z,96517.03
2017-09-17T15:44:54.556Z,96512.11
2017-09-17T15:47:22.017Z,96510.89
2017-09-17T15:49:49.449Z,96507.77
2017-09-17T15:52:16.881Z,96507.68
2017-09-17T15:54:44.301Z,96506.31
2017-09-17T15:57:11.729Z,96508.92
2017-09-17T15:59:39.148Z,96510.66
2017-09-17T16:02:06.576Z,96507.92
2017-09-17T16:04:34.108Z,96508.10
2017-09-17T16:07:01.531Z,96505.59
2017-09-17T16:09:29.020Z,96512.31
2017-09-17T16:11:56.431Z,96512.97
2017-09-17T16:14:23.835Z,96521.30
2017-09-17T16:16:51.296Z,96520.98
2017-09-17T16:19:18.724Z,96521.88
2017-09-17T16:21:46.206Z,96533.45
2017-09-17T16:24:13.794Z,96523.30
2017-09-17T16:26:41.216Z,96530.39
2017-09-17T16:29:08.656Z,96540.44
2017-09-17T16:31:36.097Z,96539.80
2017-09-17T16:34:03.529Z,96544.05
2017-09-17T16:36:30.954Z,96550.61
2017-09-17T16:38:58.407Z,96550.08
2017-09-17T16:41:25.816Z,96549.42
2017-09-17T16:43:53.238Z,96544.73
2017-09-17T16:46:20.664Z,96542.46
2017-09-17T16:48:48.150Z,96548.78
2017-09-17T16:51:15.710Z,96549.79
2017-09-17T16:53:43.222Z,96552.47
2017-09-17T16:56:11.353Z,96554.64
2017-09-17T16:58:39.809Z,96551.77
2017-09-17T17:01:07.309Z,96557.48
2017-09-17T17:03:35.285Z,96559.41
2017-09-17T17:06:02.741Z,96560.35
2017-09-17T17:08:30.227Z,96560.88
2017-09-17T17:10:57.668Z,96569.42
2017-09-17T17:13:25.114Z,96572.81
2017-09-17T17:15:52.563Z,96568.28
2017-09-17T17:18:20.103Z,96574.70
2017-09-17T17:20:47.582Z,96574.34
2017-09-17T17:23:15.064Z,96579.25
2017-09-17T17:25:42.525Z,96579.53
2017-09-17T17:28:09.999Z,96582.98
2017-09-17T17:30:37.442Z,96595.55
2017-09-17T17:33:04.886Z,96598.72
2017-09-17T17:35:32.407Z,96604.78
2017-09-17T17:37:59.934Z,96620.93
2017-09-17T17:40:27.409Z,96630.23
2017-09-17T17:42:54.951Z,96636.42
2017-09-17T17:45:22.430Z,96653.81
2017-09-17T17:47:49.879Z,96675.31
2017-09-17T17:50:17.310Z,96702.13
2017-09-17T17:52:44.747Z,96707.84
2017-09-17T17:55:12.177Z,96721.38
2017-09-17T17:57:39.717Z,96720.17
2017-09-17T18:00:08.219Z,96724.77
2017-09-17T18:02:35.636Z,96745.84
2017-09-17T18:05:03.050Z,96755.57
2017-09-17T18:07:30.646Z,96752.02
2017-09-17T18:09:58.049Z,96757.30
2017-09-17T18:12:25.475Z,96748.56
2017-09-17T18:14:53.020Z,96752.70
2017-09-17T18:17:20.443Z,96745.49
2017-09-17T18:19:47.879Z,96751.82
2017-09-17T18:22:15.315Z,96742.75
2017-09-17T18:24:42.805Z,96750.39
2017-09-17T18:27:10.185Z,96753.61
2017-09-17T18:29:37.635Z,96762.63
2017-09-17T18:32:06.046Z,96763.27
2017-09-17T18:34:33.460Z,96764.94
2017-09-17T18:37:00.911Z,96745.63
2017-09-17T18:39:28.327Z,96748.36
2017-09-17T18:41:55.735Z,96759.03
2017-09-17T18:44:23.197Z,96756.00
2017-09-17T18:46:50.612Z,96759.98
2017-09-17T18:49:18.134Z,96783.33
2017-09-17T18:51:45.560Z,96784.77
2017-09-17T18:54:12.981Z,96784.58
2017-09-17T18:56:40.405Z,96781.02
2017-09-17T18:59:07.859Z,96782.39
2017-09-17T19:01:35.291Z,96783.86
2017-09-17T19:04:02.712Z,96781.73
2017-09-17T19:06:30.183Z,96785.91
2017-09-17T19:08:57.616Z,96789.70
2017-09-17T19:11:25.023Z,96785.36
2017-09-17T19:13:52.483Z,96783.70
2017-09-17T19:16:19.919Z,96790.91
2017-09-17T19:18:47.458Z,96791.98
2017-09-17T19:21:14.890Z,96787.73
2017-09-17T19:23:42.337Z,96793.41
2017-09-17T19:26:09.769Z,96799.34
2017-09-17T19:28:37.205Z,96798.05
2017-09-17T19:31:04.626Z,96795.24
2017-09-17T19:33:32.817Z,96795.66
2017-09-17T19:36:00.256Z,96794.42
2017-09-17T19:38:27.693Z,96793.80
2017-09-17T19:40:55.104Z,96795.30
2017-09-17T19:43:22.569Z,96795.83
2017-09-17T19:45:50.040Z,96793.16
2017-09-17T19:48:17.485Z,96787.51
2017-09-17T19:50:44.940Z,96778.50
2017-09-17T19:53:12.376Z,96777.20
2017-09-17T19:55:39.819Z,96783.04
2017-09-17T19:58:07.251Z,96782.16
2017-09-17T20:00:34.688Z,96782.25
2017-09-17T20:03:02.125Z,96778.73
2017-09-17T20:05:29.558Z,96774.39
2017-09-17T20:07:57.002Z,96771.23
2017-09-17T20:10:24.419Z,96780.30
2017-09-17T20:12:51.856Z,96783.56
2017-09-17T20:15:19.299Z,96783.46
2017-09-17T20:17:46.727Z,96779.06
2017-09-17T20:20:14.215Z,96776.68
2017-09-17T20:22:41.643Z,96779.88
2017-09-17T20:25:09.048Z,96778.21
2017-09-17T20:27:36.521Z,96781.83
2017-09-17T20:30:03.951Z,96784.58
2017-09-17T20:32:31.370Z,96783.82
2017-09-17T20:34:58.825Z,96778.92
2017-09-17T20:37:26.257Z,96781.14
2017-09-17T20:39:53.662Z,96781.96
2017-09-17T20:42:21.107Z,96778.92
2017-09-17T20:44:48.541Z,96780.17
2017-09-17T20:47:16.023Z,96781.44
2017-09-17T20:49:43.432Z,96789.76
2017-09-17T20:52:10.882Z,96789.66
2017-09-17T20:54:38.303Z,96784.60
2017-09-17T20:57:08.991Z,96792.11
2017-09-17T20:59:36.411Z,96800.42
2017-09-17T21:02:03.812Z,96801.38
2017-09-17T21:04:31.247Z,96798.34
2017-09-17T21:06:58.702Z,96796.02
2017-09-17T21:09:26.329Z,96800.36
2017-09-17T21:11:53.751Z,96801.86
2017-09-17T21:14:21.170Z,96809.66
2017-09-17T21:16:48.589Z,96797.81
2017-09-17T21:19:16.036Z,96803.72
2017-09-17T21:21:43.505Z,96805.91
2017-09-17T21:24:11.041Z,96813.25
2017-09-17T21:26:38.493Z,96813.90
2017-09-17T21:29:06.051Z,96815.92
2017-09-17T21:31:33.459Z,96811.52
2017-09-17T21:34:00.912Z,96812.76
2017-09-17T21:36:28.382Z,96819.73
2017-09-17T21:38:55.804Z,96815.56
2017-09-17T21:41:23.234Z,96811.16
2017-09-17T21:43:50.652Z,96817.45
2017-09-17T21:46:18.068Z,96822.13
2017-09-17T21:48:45.557Z,96821.53
2017-09-17T21:51:12.999Z,96821.83
2017-09-17T21:53:40.400Z,96818.95
2017-09-17T21:56:07.845Z,96814.00
2017-09-17T21:58:35.294Z,96807.93
2017-09-17T22:01:02.755Z,96810.58
2017-09-17T22:03:30.181Z,96807.28
2017-09-17T22:05:57.590Z,96804.96
2017-09-17T22:08:25.005Z,96806.13
2017-09-17T22:10:52.449Z,96805.19
2017-09-17T22:13:19.874Z,96799.28
2017-09-17T22:15:47.298Z,96797.20
2017-09-17T22:18:14.878Z,96800.66
2017-09-17T22:20:42.304Z,96799.78
2017-09-17T22:23:09.712Z,96799.25
2017-09-17T22:25:37.161Z,96802.81
2017-09-17T22:28:05.583Z,96804.96
2017-09-17T22:30:33.001Z,96808.52
2017-09-17T22:33:00.443Z,96812.23
2017-09-17T22:35:27.857Z,96810.02
2017-09-17T22:37:55.269Z,96808.84
2017-09-17T22:40:23.301Z,96806.33
2017-09-17T22:42:50.714Z,96798.53
2017-09-17T22:45:18.123Z,96804.02
2017-09-17T22:47:45.573Z,96807.57
2017-09-17T22:50:13.000Z,96816.22
2017-09-17T22:52:40.422Z,96811.81
2017-09-17T22:55:07.890Z,96817.72
2017-09-17T22:57:35.302Z,96814.84
2017-09-17T23:00:02.709Z,96817.16
2017-09-17T23:02:30.174Z,96813.70
2017-09-17T23:04:57.592Z,96816.73
2017-09-17T23:07:25.014Z,96814.98
2017-09-17T23:09:52.632Z,96814.68
2017-09-17T23:12:20.045Z,96811.39
2017-09-17T23:14:47.463Z,96816.87
2017-09-17T23:17:14.916Z,96809.20
2017-09-17T23:19:42.380Z,96805.61
2017-09-17T23:22:09.851Z,96807.11
2017-09-17T23:24:37.265Z,96812.76
2017-09-17T23:27:04.673Z,96808.22
2017-09-17T23:29:32.152Z,96809.20
2017-09-17T23:31:59.619Z,96804.67
2017-09-17T23:34:27.035Z,96803.00
2017-09-17T23:36:54.449Z,96813.70
2017-09-17T23:39:21.887Z,96805.48
2017-09-17T23:41:49.305Z,96806.75
2017-09-17T23:44:16.789Z,96805.61
2017-09-17T23:46:44.255Z,96808.36
2017-09-17T23:49:11.651Z,96807.41
2017-09-17T23:51:39.071Z,96810.15
2017-09-17T23:54:06.500Z,96806.27
2017-09-17T23:56:33.906Z,96810.25
2017-09-17T23:59:01.318Z,96805.61
